Terminal Aerodrome Forecast
Issued by NWS Jackson, MS

Home | Current Version | Previous Version | Text Only | Print | Product List | Glossary On
Versions: 1 2 3 4 5 6 7 8 9 10 11 12 13 14 15 16 17 18 19 20
000
FTUS44 KJAN 251700
TAFGLH
TAF
KGLH 251735Z 2518/2618 25007KT P6SM SKC
      TEMPO 2609/2613 5SM BR=

USA.gov is the U.S. government's official web portal to all federal, state and local government web resources and services.